createdAt,value
2022-09-11T00:00:53.578Z,4.07
2022-09-11T00:03:21.540Z,4.10
2022-09-11T00:05:48.114Z,4.37
2022-09-11T00:08:19.521Z,4.50
2022-09-11T00:10:48.372Z,4.30
2022-09-11T00:13:21.423Z,4.20
2022-09-11T00:15:50.126Z,4.40
2022-09-11T00:18:21.631Z,4.13
2022-09-11T00:20:50.054Z,3.97
2022-09-11T00:23:18.769Z,4.10
2022-09-11T00:25:46.805Z,4.47
2022-09-11T00:28:19.786Z,4.40
2022-09-11T00:30:47.851Z,4.37
2022-09-11T00:33:15.663Z,5.00
2022-09-11T00:35:42.580Z,4.73
2022-09-11T00:38:10.045Z,4.60
2022-09-11T00:40:46.498Z,4.77
2022-09-11T00:43:16.671Z,5.30
2022-09-11T00:45:50.249Z,5.20
2022-09-11T00:48:20.177Z,4.60
2022-09-11T00:50:48.077Z,4.60
2022-09-11T00:53:17.637Z,4.80
2022-09-11T00:55:50.698Z,5.10
2022-09-11T00:58:21.739Z,4.97
2022-09-11T01:00:49.150Z,4.60
2022-09-11T01:03:15.722Z,4.53
2022-09-11T01:05:43.461Z,4.77
2022-09-11T01:08:10.610Z,4.60
2022-09-11T01:10:59.382Z,4.73
2022-09-11T01:13:45.170Z,4.57
2022-09-11T01:16:24.122Z,4.10
2022-09-11T01:19:01.053Z,4.90
2022-09-11T01:21:46.817Z,4.70
2022-09-11T01:24:25.833Z,4.60
2022-09-11T01:27:00.418Z,4.87
2022-09-11T01:29:40.083Z,4.73
2022-09-11T01:32:22.829Z,4.60
2022-09-11T01:35:04.400Z,4.83
2022-09-11T01:37:40.143Z,4.30
2022-09-11T01:40:36.797Z,5.83
2022-09-11T01:43:07.288Z,4.70
2022-09-11T01:45:34.999Z,4.90
2022-09-11T01:48:02.420Z,4.87
2022-09-11T01:50:31.261Z,4.80
2022-09-11T01:53:01.054Z,4.50
2022-09-11T01:55:34.739Z,4.67
2022-09-11T01:58:11.098Z,4.70
2022-09-11T02:00:44.711Z,4.80
2022-09-11T02:03:23.157Z,5.43
2022-09-11T02:05:53.836Z,4.90
2022-09-11T02:08:28.363Z,5.07
2022-09-11T02:11:03.663Z,5.10
2022-09-11T02:13:32.001Z,5.43
2022-09-11T02:16:06.013Z,5.57
2022-09-11T02:18:43.382Z,4.70
2022-09-11T02:21:10.265Z,5.60
2022-09-11T02:23:39.893Z,4.63
2022-09-11T02:26:08.501Z,4.80
2022-09-11T02:28:37.433Z,4.77
2022-09-11T02:31:04.407Z,5.00
2022-09-11T02:33:35.887Z,5.03
2022-09-11T02:36:11.202Z,5.17
2022-09-11T02:38:49.573Z,5.20
2022-09-11T02:41:21.763Z,4.90
2022-09-11T02:44:11.234Z,5.30
2022-09-11T02:46:58.467Z,4.67
2022-09-11T02:49:37.148Z,5.43
2022-09-11T02:52:28.303Z,5.43
2022-09-11T02:55:21.063Z,5.33
2022-09-11T02:57:53.139Z,5.07
2022-09-11T03:00:19.792Z,4.60
2022-09-11T03:02:47.370Z,5.90
2022-09-11T03:05:14.260Z,5.40
2022-09-11T03:07:41.361Z,5.50
2022-09-11T03:10:11.237Z,5.43
2022-09-11T03:12:39.151Z,5.03
2022-09-11T03:15:06.477Z,5.47
2022-09-11T03:17:33.526Z,5.47
2022-09-11T03:20:00.139Z,5.40
2022-09-11T03:22:26.738Z,5.00
2022-09-11T03:24:53.668Z,5.80
2022-09-11T03:27:21.787Z,5.50
2022-09-11T03:29:48.392Z,5.70
2022-09-11T03:32:16.178Z,5.50
2022-09-11T03:34:42.862Z,5.33
2022-09-11T03:37:09.526Z,5.50
2022-09-11T03:39:36.138Z,6.03
2022-09-11T03:42:02.920Z,5.37
2022-09-11T03:44:29.871Z,5.60
2022-09-11T03:46:57.711Z,5.30
2022-09-11T03:49:24.763Z,5.43
2022-09-11T03:51:51.479Z,5.53
2022-09-11T03:54:20.945Z,5.27
2022-09-11T03:56:47.839Z,5.53
2022-09-11T03:59:15.603Z,5.47
2022-09-11T04:01:44.273Z,5.77
2022-09-11T04:04:10.968Z,5.17
2022-09-11T04:06:41.869Z,5.57
2022-09-11T04:09:09.374Z,5.10
2022-09-11T04:11:38.969Z,5.80
2022-09-11T04:14:11.876Z,6.53
2022-09-11T04:16:40.688Z,6.10
2022-09-11T04:19:07.509Z,5.80
2022-09-11T04:21:34.813Z,6.10
2022-09-11T04:24:01.832Z,6.27
2022-09-11T04:26:31.610Z,5.90
2022-09-11T04:29:05.867Z,6.47
2022-09-11T04:31:35.295Z,5.93
2022-09-11T04:34:02.045Z,6.20
2022-09-11T04:36:32.127Z,6.47
2022-09-11T04:39:00.179Z,6.20
2022-09-11T04:41:28.208Z,6.40
2022-09-11T04:44:02.383Z,6.03
2022-09-11T04:46:31.322Z,5.87
2022-09-11T04:48:59.995Z,6.17
2022-09-11T04:51:30.114Z,7.97
2022-09-11T04:53:58.964Z,6.90
2022-09-11T04:56:34.240Z,6.97
2022-09-11T04:59:13.518Z,7.07
2022-09-11T05:01:44.110Z,6.70
2022-09-11T05:04:12.863Z,6.80
2022-09-11T05:06:41.377Z,7.57
2022-09-11T05:09:13.058Z,6.63
2022-09-11T05:11:39.643Z,7.30
2022-09-11T05:14:06.842Z,6.97
2022-09-11T05:16:36.578Z,7.37
2022-09-11T05:19:04.372Z,6.93
2022-09-11T05:21:33.649Z,7.70
2022-09-11T05:24:01.472Z,7.27
2022-09-11T05:26:34.597Z,7.00
2022-09-11T05:29:05.120Z,7.53
2022-09-11T05:31:33.558Z,8.03
2022-09-11T05:34:01.916Z,9.37
2022-09-11T05:36:31.148Z,11.37
2022-09-11T05:38:58.579Z,10.63
2022-09-11T05:41:26.160Z,12.20
2022-09-11T05:43:52.883Z,12.03
2022-09-11T05:46:22.365Z,13.80
2022-09-11T05:48:53.660Z,13.07
2022-09-11T05:51:21.771Z,14.47
2022-09-11T05:53:54.084Z,15.13
2022-09-11T05:56:25.445Z,15.57
2022-09-11T05:58:58.023Z,15.27
2022-09-11T06:01:31.597Z,16.27
2022-09-11T06:04:12.268Z,17.23
2022-09-11T06:06:40.691Z,16.73
2022-09-11T06:09:07.949Z,17.70
2022-09-11T06:11:34.914Z,16.90
2022-09-11T06:14:02.273Z,16.33
2022-09-11T06:16:31.529Z,18.30
2022-09-11T06:19:05.707Z,18.60
2022-09-11T06:21:32.259Z,18.17
2022-09-11T06:24:07.995Z,19.40
2022-09-11T06:26:35.501Z,18.53
2022-09-11T06:29:03.039Z,18.77
2022-09-11T06:31:30.705Z,18.77
2022-09-11T06:33:57.281Z,18.03
2022-09-11T06:36:30.135Z,16.87
2022-09-11T06:38:58.731Z,17.63
2022-09-11T06:41:28.333Z,17.07
2022-09-11T06:44:15.271Z,16.90
2022-09-11T06:46:42.243Z,16.17
2022-09-11T06:49:10.523Z,16.57
2022-09-11T06:51:57.015Z,16.03
2022-09-11T06:54:23.575Z,15.87
2022-09-11T06:56:52.093Z,16.13
2022-09-11T06:59:18.789Z,16.27
2022-09-11T07:01:45.406Z,16.17
2022-09-11T07:04:13.104Z,16.17
2022-09-11T07:06:41.306Z,17.03
2022-09-11T07:09:09.727Z,15.37
2022-09-11T07:11:44.915Z,14.60
2022-09-11T07:14:11.707Z,14.70
2022-09-11T07:16:41.164Z,15.03
2022-09-11T07:19:11.332Z,15.83
2022-09-11T07:21:39.711Z,15.27
2022-09-11T07:24:07.087Z,15.30
2022-09-11T07:26:37.922Z,15.77
2022-09-11T07:29:11.360Z,16.63
2022-09-11T07:31:38.670Z,16.70
2022-09-11T07:34:05.623Z,16.57
2022-09-11T07:36:34.743Z,15.97
2022-09-11T07:39:04.333Z,16.83
2022-09-11T07:41:36.200Z,16.97
2022-09-11T07:44:09.310Z,19.03
2022-09-11T07:46:40.253Z,18.57
2022-09-11T07:49:10.015Z,19.50
2022-09-11T07:51:37.839Z,19.90
2022-09-11T07:54:06.270Z,20.93
2022-09-11T07:56:34.834Z,18.90
2022-09-11T07:59:07.713Z,21.00
2022-09-11T08:01:35.614Z,19.70
2022-09-11T08:04:06.095Z,19.03
2022-09-11T08:06:35.255Z,18.00
2022-09-11T08:09:15.764Z,17.40
2022-09-11T08:11:50.300Z,17.87
2022-09-11T08:14:18.474Z,17.17
2022-09-11T08:16:48.389Z,16.30
2022-09-11T08:19:20.571Z,13.90
2022-09-11T08:21:52.612Z,14.90
2022-09-11T08:24:22.628Z,15.20
2022-09-11T08:26:51.559Z,13.23
2022-09-11T08:29:19.226Z,14.30
2022-09-11T08:31:47.122Z,14.13
2022-09-11T08:34:15.401Z,14.77
2022-09-11T08:36:41.952Z,14.23
2022-09-11T08:39:09.822Z,15.90
2022-09-11T08:41:49.103Z,15.63
2022-09-11T08:44:28.195Z,15.63
2022-09-11T08:47:13.874Z,17.17
2022-09-11T08:49:49.491Z,15.50
2022-09-11T08:52:16.887Z,16.33
2022-09-11T08:54:46.328Z,17.43
2022-09-11T08:57:22.277Z,15.50
2022-09-11T09:00:19.111Z,16.30
2022-09-11T09:03:06.970Z,14.93
2022-09-11T09:05:54.869Z,15.67
2022-09-11T09:08:27.729Z,15.73
2022-09-11T09:11:08.516Z,15.03
2022-09-11T09:14:02.822Z,15.30
2022-09-11T09:16:39.348Z,14.17
2022-09-11T09:19:11.108Z,15.20
2022-09-11T09:21:42.152Z,15.57
2022-09-11T09:24:19.496Z,15.87
2022-09-11T09:26:52.728Z,16.47
2022-09-11T09:29:24.943Z,16.57
2022-09-11T09:31:59.150Z,16.97
2022-09-11T09:34:31.149Z,16.77
2022-09-11T09:37:04.293Z,16.67
2022-09-11T09:39:31.867Z,18.20
2022-09-11T09:41:59.078Z,16.97
2022-09-11T09:44:46.276Z,18.13
2022-09-11T09:47:13.898Z,17.90
2022-09-11T09:49:40.814Z,17.03
2022-09-11T09:52:17.075Z,15.77
2022-09-11T09:54:44.333Z,16.77
2022-09-11T09:57:11.760Z,15.33
2022-09-11T09:59:43.800Z,14.97
2022-09-11T10:02:10.370Z,13.87
2022-09-11T10:04:36.964Z,13.83
2022-09-11T10:07:11.909Z,15.47
2022-09-11T10:09:46.864Z,14.40
2022-09-11T10:12:22.193Z,14.30
2022-09-11T10:14:52.736Z,14.07
2022-09-11T10:17:21.108Z,13.67
2022-09-11T10:19:47.839Z,13.83
2022-09-11T10:22:32.410Z,14.53
2022-09-11T10:25:10.936Z,13.70
2022-09-11T10:27:45.668Z,13.70
2022-09-11T10:30:28.090Z,13.97
2022-09-11T10:32:55.265Z,15.07
2022-09-11T10:35:25.781Z,14.37
2022-09-11T10:38:18.899Z,14.67
2022-09-11T10:40:57.841Z,13.50
2022-09-11T10:43:27.603Z,14.50
2022-09-11T10:46:26.048Z,14.37
2022-09-11T10:48:55.228Z,13.30
2022-09-11T10:51:24.304Z,12.20
2022-09-11T10:54:04.397Z,13.30
2022-09-11T10:56:33.278Z,14.10
2022-09-11T10:59:03.842Z,13.57
2022-09-11T11:01:30.435Z,14.63
2022-09-11T11:03:57.089Z,13.77
2022-09-11T11:07:04.676Z,15.00
2022-09-11T11:09:57.229Z,14.77
2022-09-11T11:12:47.659Z,14.57
2022-09-11T11:15:34.848Z,14.50
2022-09-11T11:18:26.369Z,14.20
2022-09-11T11:21:28.541Z,15.47
2022-09-11T11:24:12.170Z,13.53
2022-09-11T11:26:56.792Z,12.90
2022-09-11T11:29:54.967Z,13.73
2022-09-11T11:32:40.470Z,13.63
2022-09-11T11:35:28.311Z,14.47
2022-09-11T11:38:12.723Z,13.37
2022-09-11T11:40:43.811Z,12.90
2022-09-11T11:43:12.831Z,13.20
2022-09-11T11:45:44.955Z,13.03
2022-09-11T11:48:17.700Z,12.50
2022-09-11T11:50:47.445Z,12.13
2022-09-11T11:53:19.995Z,12.17
2022-09-11T11:55:57.186Z,11.33
2022-09-11T11:58:39.425Z,12.07
2022-09-11T12:01:12.155Z,10.60
2022-09-11T12:03:42.372Z,10.20
2022-09-11T12:06:08.911Z,10.20
2022-09-11T12:08:45.522Z,9.07
2022-09-11T12:11:15.138Z,9.70
2022-09-11T12:13:44.127Z,9.43
2022-09-11T12:16:19.175Z,9.97
2022-09-11T12:19:19.737Z,9.20
2022-09-11T12:21:52.471Z,9.20
2022-09-11T12:24:44.316Z,9.47
2022-09-11T12:27:36.190Z,8.47
2022-09-11T12:30:29.064Z,9.53
2022-09-11T12:32:57.126Z,8.70
2022-09-11T12:35:43.301Z,8.83
2022-09-11T12:38:09.830Z,9.80
2022-09-11T12:40:53.252Z,8.83
2022-09-11T12:43:35.165Z,8.57
2022-09-11T12:46:03.394Z,8.97
2022-09-11T12:48:41.265Z,7.20
2022-09-11T12:51:19.463Z,6.83
2022-09-11T12:53:50.282Z,7.10
2022-09-11T12:56:19.523Z,6.93
2022-09-11T12:58:49.940Z,7.17
2022-09-11T13:01:30.624Z,7.50
2022-09-11T13:04:09.379Z,7.03
2022-09-11T13:06:40.517Z,6.20
2022-09-11T13:09:07.660Z,6.60
2022-09-11T13:11:38.243Z,6.40
2022-09-11T13:14:30.389Z,6.57
2022-09-11T13:16:58.866Z,6.40
2022-09-11T13:19:32.838Z,7.17
2022-09-11T13:21:59.814Z,7.30
2022-09-11T13:24:32.516Z,6.47
2022-09-11T13:27:09.461Z,6.57
2022-09-11T13:29:37.174Z,6.20
2022-09-11T13:32:14.198Z,5.80
2022-09-11T13:34:47.436Z,5.83
2022-09-11T13:37:21.883Z,5.53
2022-09-11T13:39:48.517Z,5.63
2022-09-11T13:42:17.847Z,5.87
2022-09-11T13:44:47.049Z,5.40
2022-09-11T13:47:22.308Z,5.90
2022-09-11T13:49:51.419Z,5.60
2022-09-11T13:52:19.091Z,5.83
2022-09-11T13:54:48.533Z,5.37
2022-09-11T13:57:21.032Z,5.03
2022-09-11T13:59:56.755Z,4.90
2022-09-11T14:02:35.658Z,4.53
2022-09-11T14:05:08.533Z,5.67
2022-09-11T14:07:43.286Z,5.13
2022-09-11T14:10:39.555Z,5.13
2022-09-11T14:13:20.403Z,5.60
2022-09-11T14:16:00.558Z,4.70
2022-09-11T14:18:41.862Z,4.70
2022-09-11T14:21:14.033Z,4.13
2022-09-11T14:23:43.988Z,4.63
2022-09-11T14:26:17.039Z,4.73
2022-09-11T14:28:56.833Z,5.03
2022-09-11T14:31:44.718Z,4.60
2022-09-11T14:34:15.134Z,4.63
2022-09-11T14:36:46.475Z,4.77
2022-09-11T14:39:24.363Z,4.73
2022-09-11T14:41:52.292Z,4.90
2022-09-11T14:44:19.990Z,4.93
2022-09-11T14:46:46.609Z,5.27
2022-09-11T14:49:13.222Z,4.90
2022-09-11T14:51:40.959Z,5.10
2022-09-11T14:54:13.174Z,5.00
2022-09-11T14:56:40.329Z,4.87
2022-09-11T14:59:07.006Z,4.80
2022-09-11T15:01:33.746Z,5.77
2022-09-11T15:04:01.808Z,5.17
2022-09-11T15:06:28.371Z,4.83
2022-09-11T15:08:54.914Z,5.87
2022-09-11T15:11:21.444Z,6.33
2022-09-11T15:14:13.461Z,5.97
2022-09-11T15:16:35.329Z,5.90
2022-09-11T15:19:01.865Z,5.60
2022-09-11T15:21:28.620Z,4.90
2022-09-11T15:23:55.641Z,5.37
2022-09-11T15:26:22.205Z,4.97
2022-09-11T15:28:50.931Z,5.33
2022-09-11T15:31:18.554Z,5.67
2022-09-11T15:33:52.973Z,5.47
2022-09-11T15:36:21.357Z,4.37
2022-09-11T15:38:53.249Z,4.60
2022-09-11T15:41:21.935Z,4.60
2022-09-11T15:43:50.584Z,4.40
2022-09-11T15:46:21.910Z,4.80
2022-09-11T15:48:49.320Z,5.07
2022-09-11T15:51:24.032Z,5.10
2022-09-11T15:53:52.340Z,4.97
2022-09-11T15:56:25.729Z,4.67
2022-09-11T15:58:52.724Z,4.90
2022-09-11T16:01:25.705Z,4.63
2022-09-11T16:03:57.446Z,4.73
2022-09-11T16:06:26.502Z,4.50
2022-09-11T16:08:57.611Z,4.60
2022-09-11T16:11:25.139Z,4.70
2022-09-11T16:13:53.531Z,4.83
2022-09-11T16:16:20.364Z,4.27
2022-09-11T16:18:47.126Z,4.57
2022-09-11T16:21:15.025Z,4.90
2022-09-11T16:23:41.734Z,4.90
2022-09-11T16:26:11.378Z,4.73
2022-09-11T16:28:39.571Z,4.53
2022-09-11T16:31:07.228Z,4.60
2022-09-11T16:33:40.486Z,5.80
2022-09-11T16:36:09.836Z,6.17
2022-09-11T16:38:38.547Z,5.80
2022-09-11T16:41:12.465Z,6.17
2022-09-11T16:43:40.353Z,6.60
2022-09-11T16:46:08.644Z,6.10
2022-09-11T16:48:37.087Z,5.87
2022-09-11T16:51:03.802Z,5.80
2022-09-11T16:53:34.301Z,6.00
2022-09-11T16:56:08.616Z,5.57
2022-09-11T16:58:35.392Z,6.03
2022-09-11T17:01:08.903Z,6.30
2022-09-11T17:03:41.354Z,5.80
2022-09-11T17:06:08.877Z,5.43
2022-09-11T17:08:36.681Z,5.53
2022-09-11T17:11:04.448Z,5.23
2022-09-11T17:13:31.357Z,5.20
2022-09-11T17:16:06.837Z,5.23
2022-09-11T17:18:33.500Z,4.90
2022-09-11T17:21:05.016Z,5.17
2022-09-11T17:23:32.729Z,4.83
2022-09-11T17:25:59.344Z,4.93
2022-09-11T17:28:26.574Z,4.53
2022-09-11T17:30:53.117Z,4.50
2022-09-11T17:33:19.783Z,4.70
2022-09-11T17:35:47.282Z,4.90
2022-09-11T17:38:13.805Z,4.23
2022-09-11T17:40:41.420Z,4.43
2022-09-11T17:43:07.973Z,4.27
2022-09-11T17:45:34.501Z,4.70
2022-09-11T17:48:01.659Z,4.43
2022-09-11T17:50:28.183Z,4.50
2022-09-11T17:52:54.734Z,4.90
2022-09-11T17:55:21.642Z,5.00
2022-09-11T17:57:54.437Z,4.90
2022-09-11T18:00:21.137Z,5.00
2022-09-11T18:02:50.068Z,5.43
2022-09-11T18:05:16.665Z,5.90
2022-09-11T18:07:43.202Z,5.67
2022-09-11T18:10:09.915Z,6.03
2022-09-11T18:12:36.561Z,5.50
2022-09-11T18:15:03.868Z,5.03
2022-09-11T18:17:30.452Z,6.23
2022-09-11T18:19:57.004Z,5.27
2022-09-11T18:22:23.621Z,5.20
2022-09-11T18:24:53.147Z,6.00
2022-09-11T18:27:19.969Z,6.20
2022-09-11T18:29:46.622Z,5.40
2022-09-11T18:32:13.152Z,5.80
2022-09-11T18:34:39.716Z,5.47
2022-09-11T18:37:07.807Z,5.40
2022-09-11T18:39:34.336Z,5.73
2022-09-11T18:42:01.884Z,5.47
2022-09-11T18:44:28.795Z,6.60
2022-09-11T18:46:55.593Z,6.30
2022-09-11T18:49:22.571Z,6.33
2022-09-11T18:51:49.631Z,6.50
2022-09-11T18:54:20.124Z,6.10
2022-09-11T18:56:48.617Z,6.70
2022-09-11T18:59:15.644Z,6.40
2022-09-11T19:01:42.421Z,6.37
2022-09-11T19:04:10.861Z,6.60
2022-09-11T19:06:41.086Z,6.70
2022-09-11T19:09:10.436Z,6.40
2022-09-11T19:11:37.700Z,6.40
2022-09-11T19:14:06.829Z,6.43
2022-09-11T19:16:34.252Z,5.50
2022-09-11T19:19:01.108Z,5.60
2022-09-11T19:21:27.664Z,6.07
2022-09-11T19:23:57.667Z,6.47
2022-09-11T19:26:32.720Z,6.20
2022-09-11T19:29:00.274Z,6.70
2022-09-11T19:31:29.415Z,5.97
2022-09-11T19:33:57.034Z,6.23
2022-09-11T19:36:25.893Z,6.33
2022-09-11T19:38:55.864Z,6.33
2022-09-11T19:41:25.930Z,6.23
2022-09-11T19:43:54.109Z,6.17
2022-09-11T19:46:24.183Z,6.13
2022-09-11T19:49:00.335Z,5.97
2022-09-11T19:51:29.347Z,6.03
2022-09-11T19:53:57.577Z,6.60
2022-09-11T19:56:25.111Z,6.10
2022-09-11T19:58:52.030Z,6.47
2022-09-11T20:01:23.918Z,6.10
2022-09-11T20:03:53.007Z,6.83
2022-09-11T20:06:21.709Z,5.70
2022-09-11T20:08:49.903Z,6.20
2022-09-11T20:11:19.725Z,6.47
2022-09-11T20:13:46.283Z,6.23
2022-09-11T20:16:20.133Z,6.37
2022-09-11T20:18:47.049Z,5.93
2022-09-11T20:21:15.817Z,5.73
2022-09-11T20:23:43.836Z,6.90
2022-09-11T20:26:17.374Z,6.23
2022-09-11T20:28:45.254Z,6.30
2022-09-11T20:31:22.870Z,7.43
2022-09-11T20:33:49.949Z,6.30
2022-09-11T20:36:17.343Z,6.60
2022-09-11T20:38:44.410Z,6.43
2022-09-11T20:41:12.679Z,5.63
2022-09-11T20:43:40.216Z,5.87
2022-09-11T20:46:07.210Z,6.50
2022-09-11T20:48:34.140Z,6.20
2022-09-11T20:51:19.093Z,6.20
2022-09-11T20:53:45.826Z,6.57
2022-09-11T20:56:14.744Z,6.23
2022-09-11T20:58:41.494Z,6.60
2022-09-11T21:01:10.513Z,5.87
2022-09-11T21:03:37.159Z,6.40
2022-09-11T21:06:07.962Z,6.50
2022-09-11T21:08:35.105Z,6.07
2022-09-11T21:11:05.372Z,6.37
2022-09-11T21:13:39.016Z,6.70
2022-09-11T21:16:08.031Z,6.00
2022-09-11T21:18:34.937Z,6.03
2022-09-11T21:21:01.814Z,6.60
2022-09-11T21:23:28.548Z,6.43
2022-09-11T21:25:55.167Z,6.03
2022-09-11T21:28:22.155Z,5.73
2022-09-11T21:30:48.846Z,5.43
2022-09-11T21:33:15.455Z,5.90
2022-09-11T21:35:42.275Z,5.53
2022-09-11T21:38:08.889Z,6.40
2022-09-11T21:40:35.499Z,5.80
2022-09-11T21:43:02.080Z,6.00
2022-09-11T21:45:28.654Z,5.57
2022-09-11T21:47:55.236Z,6.53
2022-09-11T21:50:21.775Z,5.83
2022-09-11T21:52:48.633Z,5.80
2022-09-11T21:55:15.603Z,5.63
2022-09-11T21:57:42.181Z,5.47
2022-09-11T22:00:11.548Z,5.67
2022-09-11T22:02:38.343Z,5.57
2022-09-11T22:05:05.376Z,5.60
2022-09-11T22:07:32.457Z,6.30
2022-09-11T22:09:59.439Z,6.00
2022-09-11T22:12:26.089Z,5.73
2022-09-11T22:14:54.845Z,6.07
2022-09-11T22:17:22.209Z,5.67
2022-09-11T22:19:49.244Z,6.07
2022-09-11T22:22:15.970Z,5.67
2022-09-11T22:24:42.617Z,6.53
2022-09-11T22:27:09.803Z,5.77
2022-09-11T22:29:37.161Z,5.80
2022-09-11T22:32:04.898Z,5.97
2022-09-11T22:34:35.728Z,5.97
2022-09-11T22:37:02.799Z,5.70
2022-09-11T22:39:31.794Z,5.80
2022-09-11T22:41:59.691Z,5.60
2022-09-11T22:44:26.602Z,5.70
2022-09-11T22:46:53.433Z,5.13
2022-09-11T22:49:19.980Z,5.90
2022-09-11T22:51:46.641Z,5.70
2022-09-11T22:54:13.944Z,6.90
2022-09-11T22:56:40.547Z,6.17
2022-09-11T22:59:08.109Z,6.37
2022-09-11T23:01:35.215Z,6.70
2022-09-11T23:04:01.930Z,6.00
2022-09-11T23:06:47.254Z,6.50
2022-09-11T23:09:16.871Z,5.77
2022-09-11T23:11:45.146Z,5.60
2022-09-11T23:14:14.558Z,6.07
2022-09-11T23:16:41.929Z,6.60
2022-09-11T23:19:08.619Z,5.87
2022-09-11T23:21:35.953Z,6.40
2022-09-11T23:24:06.108Z,6.10
2022-09-11T23:26:33.304Z,5.77
2022-09-11T23:29:00.173Z,6.10
2022-09-11T23:31:29.857Z,6.50
2022-09-11T23:33:59.515Z,6.43
2022-09-11T23:36:27.249Z,5.90
2022-09-11T23:38:53.911Z,6.17
2022-09-11T23:41:20.853Z,6.30
2022-09-11T23:43:47.743Z,6.20
2022-09-11T23:46:14.698Z,6.13
2022-09-11T23:48:41.879Z,6.40
2022-09-11T23:51:10.336Z,5.87
2022-09-11T23:53:39.324Z,5.83
2022-09-11T23:56:10.519Z,5.87
2022-09-11T23:58:45.794Z,5.83
